METAR stanice u blizini

 

LYBE - Beograd / Surčin, Srbija
Ažurirano: 25/01/2020 08:30
Mist, Delimično oblačno
Mist, Delimično oblačno
 Pravac vetra JZ
Vetar: JZ 7 km/h
Temperatura: -1°C
Osećaj hladnoće: -4°C
Tačka rose: -3°C
Vlažnost: 86%
Pritisak: 1025 hPa
Pregled: Mist
Oblaci: Partly Cloudy
Vidljivost: 3 km
2020/01/25 07:30 LYBE 250730Z 22004KT 2500 BR NSC M01/M03 Q1025 BECMG 4000
LYBT - Beograd / Batajnica, Srbija
Ažurirano: 25/01/2020 08:30
Mist, Delimično oblačno
Mist, Delimično oblačno
 Pravac vetra varies
Vetar: varies 2 km/h
Temperatura: -3°C
Tačka rose: -4°C
Vlažnost: 93%
Pritisak: 1025 hPa
Pregled: Mist
Oblaci: Partly Cloudy
Vidljivost: 1 km
2020/01/25 07:30 LYBT 250730Z VRB01KT 1200 R12/1400D R30/1500U BR NSC M03/M04 Q1025 BECMG 3000
LYVR - Vršac, Srbija
Ažurirano: 25/01/2020 08:30
Vedro
Vedro
 Pravac vetra varies
Vetar: varies 2 km/h
Temperatura: -3°C
Tačka rose: -5°C
Vlažnost: 86%
Pritisak: 1025 hPa
Pregled: Vedro
Vidljivost: greater than 10 km
2020/01/25 07:30 LYVR 250730Z VRB01KT CAVOK M03/M05 Q1025 NOSIG
 
LYKV - Lađevci, Srbija
Ažurirano: 25/01/2020 08:30
Mist, Delimično oblačno
Mist, Delimično oblačno
 Pravac vetra varies
Vetar: varies 4 km/h
Temperatura: -5°C
Tačka rose: -5°C
Vlažnost: 100%
Pritisak: 1026 hPa
Pregled: Mist
Oblaci: Partly Cloudy
Vidljivost: 3 km
2020/01/25 07:30 LYKV 250730Z VRB02KT 3000 BR NSC M05/M05 Q1026 NOSIG
LYNI - Niš, Srbija
Ažurirano: 25/01/2020 08:30
Partly Cloudy
Partly Cloudy
 Pravac vetra I
Vetar: I 9 km/h
Temperatura: -1°C
Osećaj hladnoće: -4°C
Tačka rose: -5°C
Vlažnost: 75%
Pritisak: 1027 hPa
Oblaci: Partly Cloudy
Vidljivost: 8 km
2020/01/25 07:30 LYNI 250730Z 10005KT 8000 NSC M01/M05 Q1027 NOSIG
BKPR - Priština, Srbija
Ažurirano: 25/01/2020 08:30
Mist, Delimično oblačno
Mist, Delimično oblačno
 Pravac vetra calm
Vetar: Tišina
Temperatura: -4°C
Tačka rose: -7°C
Vlažnost: 80%
Pritisak: 1027 hPa
Pregled: Mist
Oblaci: Partly Cloudy
Vidljivost: 3 km
2020/01/25 07:30 BKPR 250730Z 00000KT 2500 BR NSC M04/M07 Q1027 BECMG 4000 RMK 17010095
 
LHPP - Pecs / Pogany, Hungary
Ažurirano: 25/01/2020 08:30
Mist, Delimično oblačno
Mist, Delimično oblačno
 Pravac vetra calm
Vetar: Tišina
Temperatura: -4°C
Tačka rose: -5°C
Vlažnost: 93%
Pritisak: 1026 hPa
Pregled: Mist
Oblaci: Partly Cloudy
Vidljivost: 3 km
2020/01/25 07:30 LHPP 250730Z 00000KT 3000 BR NSC M04/M05 Q1026
LHUD - Szeged, Hungary
Ažurirano: 04/07/2019 01:45
NOT Current
Vedro
Vedro
 Pravac vetra S
Vetar: S 7 km/h
Temperatura: 18°C
Tačka rose: 13°C
Vlažnost: 73%
Pritisak: 1019 hPa
Pregled: Vedro
Vidljivost: greater than 10 km
2019/07/03 23:45 LHUD 032345Z 35004KT CAVOK 18/13 Q1019
LRTR - Timisoara, Romania
Ažurirano: 25/01/2020 08:30
Vedro
Vedro
 Pravac vetra IJI
Vetar: IJI 17 km/h
Temperatura: -2°C
Osećaj hladnoće: -7°C
Tačka rose: -4°C
Vlažnost: 86%
Pritisak: 1025 hPa
Pregled: Vedro
Vidljivost: greater than 10 km
2020/01/25 07:30 LRTR 250730Z 12009KT CAVOK M02/M04 Q1025 NOSIG
 
LRCV - Craiova, Romania
Ažurirano: 25/01/2020 08:30
Vedro
Vedro
 Pravac vetra Z
Vetar: Z 17 km/h
Temperatura: 1°C
Osećaj hladnoće: -3°C
Tačka rose: -4°C
Vlažnost: 70%
Pritisak: 1022 hPa
Pregled: Vedro
Vidljivost: greater than 10 km
2020/01/25 07:30 LRCV 250730Z 27009KT CAVOK 01/M04 Q1022
LBSF - Sofia, Bulgaria
Ažurirano: 25/01/2020 08:30
Mist, Delimično oblačno
Mist, Delimično oblačno
 Pravac vetra varies
Vetar: varies 4 km/h
Temperatura: -4°C
Tačka rose: -6°C
Vlažnost: 86%
Pritisak: 1026 hPa
Pregled: Mist
Oblaci: Partly Cloudy
Vidljivost: 5 km
2020/01/25 07:30 LBSF 250730Z VRB02KT 4500 BR NSC M04/M06 Q1026 TEMPO 3000 BR
LWSK - Skoplje, Makedonija
Ažurirano: 25/01/2020 08:30
Partly Cloudy
Partly Cloudy
 Pravac vetra calm
Vetar: Tišina
Temperatura: -4°C
Tačka rose: -6°C
Vlažnost: 86%
Pritisak: 1030 hPa
Oblaci: Partly Cloudy
Vidljivost: 6 km
2020/01/25 07:30 LWSK 250730Z 00000KT 6000 NSC M04/M06 Q1030 NOSIG
 
LYPG - Podgorica, Crna Gora
Ažurirano: 25/01/2020 08:30
Oblačno
Oblačno
 Pravac vetra SI
Vetar: SI 7 km/h
Temperatura: 6°C
Osećaj hladnoće: 4°C
Tačka rose: 2°C
Vlažnost: 76%
Pritisak: 1028 hPa
Oblaci: Oblačno
Vidljivost: 8 km
Cloud details: Partly Cloudy 1219 m
Oblačno 2438 m
2020/01/25 07:30 LYPG 250730Z 05004KT 040V100 8000 SCT040 OVC080 06/02 Q1028 NOSIG
LQSA - Sarajevo, Bosna i Hercegovina
Ažurirano: 25/01/2020 08:30
Mist, Delimično oblačno
Mist, Delimično oblačno
 Pravac vetra varies
Vetar: varies 4 km/h
Temperatura: -2°C
Tačka rose: -3°C
Vlažnost: 93%
Pritisak: 1025 hPa
Pregled: Mist
Oblaci: Partly Cloudy
Vidljivost: 2 km
2020/01/25 07:30 LQSA 250730Z VRB02KT 1500 R11/1100N BR NSC M02/M03 Q1025 NOSIG
LDOS - Osijek, Hrvatksa
Ažurirano: 25/01/2020 08:30
Mist, Delimično oblačno
Mist, Delimično oblačno
 Pravac vetra calm
Vetar: Tišina
Temperatura: -4°C
Tačka rose: -5°C
Vlažnost: 93%
Pritisak: 1025 hPa
Pregled: Mist
Oblaci: Partly Cloudy
Vidljivost: 2 km
2020/01/25 07:30 LDOS 250730Z 00000KT 2000 BR NSC M04/M05 Q1025